createdAt,value
2019-02-05T00:01:04.526Z,7.13
2019-02-05T00:03:32.254Z,10.37
2019-02-05T00:05:59.962Z,9.23
2019-02-05T00:08:27.659Z,10.13
2019-02-05T00:10:55.725Z,9.97
2019-02-05T00:13:23.394Z,12.03
2019-02-05T00:15:51.094Z,10.17
2019-02-05T00:18:18.822Z,11.10
2019-02-05T00:20:46.549Z,9.93
2019-02-05T00:23:15.313Z,9.53
2019-02-05T00:25:42.994Z,10.07
2019-02-05T00:28:11.116Z,10.30
2019-02-05T00:30:38.829Z,9.43
2019-02-05T00:33:06.538Z,10.20
2019-02-05T00:35:34.185Z,9.00
2019-02-05T00:38:01.880Z,10.30
2019-02-05T00:40:29.621Z,8.13
2019-02-05T00:42:57.352Z,12.20
2019-02-05T00:45:26.701Z,10.87
2019-02-05T00:47:54.344Z,10.70
2019-02-05T00:50:22.066Z,10.50
2019-02-05T00:52:49.756Z,9.20
2019-02-05T00:55:17.852Z,8.30
2019-02-05T00:57:45.565Z,10.33
2019-02-05T01:00:27.523Z,11.13
2019-02-05T01:02:55.410Z,12.77
2019-02-05T01:05:23.385Z,12.93
2019-02-05T01:07:51.948Z,11.60
2019-02-05T01:10:21.637Z,13.10
2019-02-05T01:12:49.346Z,13.33
2019-02-05T01:15:17.136Z,14.80
2019-02-05T01:17:44.851Z,13.90
2019-02-05T01:20:15.315Z,11.80
2019-02-05T01:22:42.998Z,12.00
2019-02-05T01:25:10.754Z,11.97
2019-02-05T01:27:38.617Z,13.10
2019-02-05T01:30:08.511Z,13.37
2019-02-05T01:32:36.163Z,13.43
2019-02-05T01:35:04.653Z,12.20
2019-02-05T01:37:32.305Z,11.70
2019-02-05T01:39:59.976Z,12.13
2019-02-05T01:42:27.657Z,11.27
2019-02-05T01:44:55.303Z,11.97
2019-02-05T01:47:23.207Z,10.33
2019-02-05T01:49:50.927Z,12.27
2019-02-05T01:52:18.632Z,11.00
2019-02-05T01:54:46.324Z,11.73
2019-02-05T01:57:14.026Z,12.43
2019-02-05T01:59:41.674Z,13.77
2019-02-05T02:02:09.398Z,13.33
2019-02-05T02:04:37.059Z,16.13
2019-02-05T02:07:05.131Z,15.10
2019-02-05T02:09:32.850Z,15.83
2019-02-05T02:12:00.506Z,14.07
2019-02-05T02:14:28.205Z,14.30
2019-02-05T02:16:56.011Z,15.53
2019-02-05T02:19:23.749Z,19.47
2019-02-05T02:21:51.434Z,18.57
2019-02-05T02:24:19.110Z,15.40
2019-02-05T02:26:52.014Z,19.90
2019-02-05T02:29:16.299Z,18.97
2019-02-05T02:31:44.079Z,18.13
2019-02-05T02:34:11.777Z,22.57
2019-02-05T02:36:39.874Z,19.80
2019-02-05T02:39:07.912Z,16.27
2019-02-05T02:41:35.552Z,19.77
2019-02-05T02:44:03.593Z,20.37
2019-02-05T02:46:31.285Z,18.87
2019-02-05T02:48:58.965Z,16.53
2019-02-05T02:51:26.628Z,20.27
2019-02-05T02:53:54.749Z,19.63
2019-02-05T02:56:22.593Z,20.83
2019-02-05T02:58:50.238Z,15.67
2019-02-05T03:01:17.890Z,19.27
2019-02-05T03:03:45.702Z,19.27
2019-02-05T03:06:13.385Z,22.83
2019-02-05T03:08:41.063Z,17.03
2019-02-05T03:11:08.751Z,18.23
2019-02-05T03:13:36.572Z,18.40
2019-02-05T03:16:04.436Z,19.40
2019-02-05T03:18:32.702Z,18.23
2019-02-05T03:21:00.895Z,17.63
2019-02-05T03:23:28.632Z,16.97
2019-02-05T03:25:56.328Z,16.53
2019-02-05T03:28:24.059Z,20.20
2019-02-05T03:30:51.716Z,19.03
2019-02-05T03:33:20.883Z,19.17
2019-02-05T03:35:48.590Z,18.33
2019-02-05T03:38:16.273Z,17.63
2019-02-05T03:41:02.257Z,14.47
2019-02-05T03:43:29.975Z,16.93
2019-02-05T03:45:58.766Z,16.37
2019-02-05T03:48:27.045Z,20.97
2019-02-05T03:51:03.712Z,18.53
2019-02-05T03:53:35.389Z,16.17
2019-02-05T03:56:42.464Z,19.97
2019-02-05T03:59:43.514Z,17.30
2019-02-05T04:02:38.707Z,18.27
2019-02-05T04:05:32.956Z,20.50
2019-02-05T04:08:18.308Z,22.57
2019-02-05T04:11:25.765Z,21.07
2019-02-05T04:14:35.393Z,24.03
2019-02-05T04:17:31.217Z,24.30
2019-02-05T04:20:36.545Z,24.93
2019-02-05T04:23:30.353Z,25.53
2019-02-05T04:26:23.923Z,23.47
2019-02-05T04:29:25.626Z,23.57
2019-02-05T04:32:47.228Z,21.73
2019-02-05T04:35:50.506Z,20.37
2019-02-05T04:38:51.349Z,22.23
2019-02-05T04:41:45.771Z,22.87
2019-02-05T04:44:46.982Z,24.03
2019-02-05T04:48:08.863Z,22.47
2019-02-05T04:51:24.243Z,20.43
2019-02-05T04:54:22.712Z,23.27
2019-02-05T04:56:59.422Z,25.70
2019-02-05T04:59:46.504Z,20.83
2019-02-05T05:02:51.359Z,23.47
2019-02-05T05:05:46.519Z,21.03
2019-02-05T05:08:54.072Z,23.60
2019-02-05T05:11:21.761Z,20.20
2019-02-05T05:13:49.493Z,25.47
2019-02-05T05:16:17.172Z,26.03
2019-02-05T05:18:44.984Z,22.67
2019-02-05T05:21:12.730Z,27.87
2019-02-05T05:23:40.779Z,24.80
2019-02-05T05:26:08.459Z,25.33
2019-02-05T05:28:40.366Z,23.23
2019-02-05T05:31:08.498Z,21.63
2019-02-05T05:33:36.214Z,26.77
2019-02-05T05:36:04.011Z,25.63
2019-02-05T05:38:33.200Z,24.50
2019-02-05T05:41:04.858Z,23.03
2019-02-05T05:43:35.506Z,25.73
2019-02-05T05:46:03.405Z,24.73
2019-02-05T05:48:31.186Z,24.23
2019-02-05T05:50:58.948Z,21.83
2019-02-05T05:53:26.677Z,29.53
2019-02-05T05:55:54.617Z,27.40
2019-02-05T05:58:23.225Z,25.27
2019-02-05T06:00:51.453Z,25.57
2019-02-05T06:03:19.249Z,25.47
2019-02-05T06:05:46.937Z,27.97
2019-02-05T06:08:14.654Z,23.57
2019-02-05T06:10:42.517Z,34.77
2019-02-05T06:13:10.233Z,36.33
2019-02-05T06:15:38.122Z,36.47
2019-02-05T06:18:05.852Z,26.60
2019-02-05T06:20:34.026Z,26.27
2019-02-05T06:23:01.751Z,33.40
2019-02-05T06:25:29.509Z,32.73
2019-02-05T06:27:57.177Z,36.50
2019-02-05T06:30:24.967Z,28.67
2019-02-05T06:32:52.846Z,32.37
2019-02-05T06:35:20.611Z,35.53
2019-02-05T06:37:48.577Z,37.23
2019-02-05T06:40:18.481Z,42.93
2019-02-05T06:42:46.170Z,44.43
2019-02-05T06:45:14.607Z,43.90
2019-02-05T06:47:42.457Z,42.17
2019-02-05T06:50:10.360Z,43.13
2019-02-05T06:52:38.067Z,42.13
2019-02-05T06:55:06.339Z,47.60
2019-02-05T06:57:34.225Z,48.90
2019-02-05T07:00:01.976Z,45.60
2019-02-05T07:02:29.828Z,46.37
2019-02-05T07:04:57.694Z,44.70
2019-02-05T07:07:28.088Z,44.03
2019-02-05T07:09:55.892Z,42.33
2019-02-05T07:12:23.592Z,54.97
2019-02-05T07:14:51.543Z,42.10
2019-02-05T07:17:19.390Z,49.20
2019-02-05T07:19:47.249Z,49.90
2019-02-05T07:22:15.091Z,41.47
2019-02-05T07:24:42.996Z,44.93
2019-02-05T07:27:10.748Z,44.03
2019-02-05T07:29:38.734Z,56.90
2019-02-05T07:32:06.878Z,40.97
2019-02-05T07:34:34.643Z,50.23
2019-02-05T07:37:02.444Z,42.13
2019-02-05T07:39:30.275Z,47.93
2019-02-05T07:41:59.043Z,46.33
2019-02-05T07:44:30.000Z,48.03
2019-02-05T07:46:57.901Z,43.63
2019-02-05T07:49:25.703Z,49.43
2019-02-05T07:51:53.942Z,48.27
2019-02-05T07:54:21.886Z,43.27
2019-02-05T07:56:49.789Z,45.37
2019-02-05T07:59:17.514Z,49.80
2019-02-05T08:01:45.671Z,51.17
2019-02-05T08:04:14.383Z,47.80
2019-02-05T08:06:42.403Z,45.53
2019-02-05T08:09:10.595Z,54.07
2019-02-05T08:11:41.229Z,52.93
2019-02-05T08:14:08.525Z,52.47
2019-02-05T08:16:37.957Z,50.90
2019-02-05T08:19:06.047Z,55.60
2019-02-05T08:21:34.132Z,46.67
2019-02-05T08:24:02.283Z,45.07
2019-02-05T08:26:30.312Z,42.57
2019-02-05T08:28:58.266Z,51.03
2019-02-05T08:31:38.851Z,49.40
2019-02-05T08:34:09.254Z,50.17
2019-02-05T08:36:37.121Z,47.57
2019-02-05T08:39:08.270Z,55.33
2019-02-05T08:41:36.098Z,49.27
2019-02-05T08:44:04.075Z,50.00
2019-02-05T08:46:33.115Z,52.50
2019-02-05T08:49:01.041Z,51.30
2019-02-05T08:51:29.182Z,47.07
2019-02-05T08:53:56.957Z,45.30
2019-02-05T08:56:24.710Z,44.77
2019-02-05T08:58:53.484Z,45.00
2019-02-05T09:01:21.342Z,43.60
2019-02-05T09:03:49.160Z,41.07
2019-02-05T09:06:17.221Z,33.00
2019-02-05T09:08:45.253Z,40.23
2019-02-05T09:11:13.002Z,41.17
2019-02-05T09:13:41.335Z,39.13
2019-02-05T09:16:12.201Z,34.80
2019-02-05T09:18:40.005Z,40.10
2019-02-05T09:21:07.768Z,37.57
2019-02-05T09:23:35.892Z,38.67
2019-02-05T09:26:03.974Z,37.60
2019-02-05T09:28:31.668Z,36.67
2019-02-05T09:30:59.438Z,37.97
2019-02-05T09:33:27.366Z,38.93
2019-02-05T09:35:55.193Z,41.27
2019-02-05T09:38:23.105Z,34.53
2019-02-05T09:40:50.907Z,35.20
2019-02-05T09:43:19.016Z,36.03
2019-02-05T09:45:46.911Z,32.57
2019-02-05T09:48:14.652Z,29.87
2019-02-05T09:50:44.987Z,30.90
2019-02-05T09:53:11.772Z,32.27
2019-02-05T09:55:40.221Z,36.50
2019-02-05T09:58:08.041Z,35.83
2019-02-05T10:00:37.457Z,36.90
2019-02-05T10:03:07.077Z,34.17
2019-02-05T10:05:35.062Z,32.40
2019-02-05T10:08:03.030Z,34.10
2019-02-05T10:10:31.581Z,34.60
2019-02-05T10:13:01.757Z,35.80
2019-02-05T10:15:32.035Z,30.67
2019-02-05T10:18:00.183Z,36.10
2019-02-05T10:20:28.044Z,34.40
2019-02-05T10:22:57.843Z,38.10
2019-02-05T10:25:25.612Z,38.67
2019-02-05T10:27:53.520Z,34.97
2019-02-05T10:30:41.292Z,36.03
2019-02-05T10:33:09.538Z,36.17
2019-02-05T10:39:00.968Z,33.50
2019-02-05T10:41:28.687Z,35.00
2019-02-05T10:43:56.500Z,40.87
2019-02-05T10:46:24.211Z,35.13
2019-02-05T10:48:51.904Z,33.50
2019-02-05T10:51:19.581Z,34.20
2019-02-05T10:53:47.567Z,35.43
2019-02-05T10:56:15.260Z,39.77
2019-02-05T10:58:42.988Z,36.23
2019-02-05T11:01:10.787Z,36.00
2019-02-05T11:03:38.478Z,34.03
2019-02-05T11:06:06.141Z,39.53
2019-02-05T11:08:33.884Z,35.20
2019-02-05T11:11:01.542Z,32.77
2019-02-05T11:13:29.656Z,36.23
2019-02-05T11:15:57.360Z,35.00
2019-02-05T11:18:25.127Z,34.43
2019-02-05T11:20:52.814Z,33.50
2019-02-05T11:23:20.547Z,36.03
2019-02-05T11:25:48.318Z,33.73
2019-02-05T11:28:16.066Z,33.77
2019-02-05T11:30:44.612Z,36.07
2019-02-05T11:33:12.566Z,33.27
2019-02-05T11:35:40.253Z,38.90
2019-02-05T11:38:08.959Z,37.80
2019-02-05T11:40:41.251Z,33.73
2019-02-05T11:43:09.027Z,30.77
2019-02-05T11:45:36.735Z,36.90
2019-02-05T11:48:08.808Z,32.17
2019-02-05T11:50:36.714Z,32.27
2019-02-05T11:53:04.531Z,31.53
2019-02-05T11:55:32.265Z,32.37
2019-02-05T11:57:59.992Z,35.80
2019-02-05T12:00:56.488Z,32.97
2019-02-05T12:03:24.243Z,33.43
2019-02-05T12:05:51.914Z,31.00
2019-02-05T12:08:19.670Z,27.20
2019-02-05T12:10:47.409Z,29.77
2019-02-05T12:13:15.263Z,31.43
2019-02-05T12:15:42.962Z,31.73
2019-02-05T12:18:10.659Z,27.33
2019-02-05T12:20:38.807Z,26.77
2019-02-05T12:23:06.584Z,35.67
2019-02-05T12:25:34.286Z,35.97
2019-02-05T12:28:02.074Z,31.07
2019-02-05T12:30:31.649Z,29.73
2019-02-05T12:33:01.705Z,28.77
2019-02-05T12:35:28.971Z,27.33
2019-02-05T12:37:56.896Z,27.67
2019-02-05T12:40:24.965Z,26.17
2019-02-05T12:42:52.695Z,25.60
2019-02-05T12:45:22.574Z,25.27
2019-02-05T12:47:50.232Z,28.10
2019-02-05T12:50:22.953Z,26.77
2019-02-05T12:52:51.295Z,29.97
2019-02-05T12:55:19.761Z,28.03
2019-02-05T12:57:47.643Z,29.67
2019-02-05T13:00:26.812Z,28.13
2019-02-05T13:02:54.843Z,30.57
2019-02-05T13:05:22.771Z,25.43
2019-02-05T13:07:50.497Z,27.43
2019-02-05T13:10:20.687Z,27.73
2019-02-05T13:12:48.420Z,28.60
2019-02-05T13:15:28.704Z,31.20
2019-02-05T13:17:56.591Z,31.50
2019-02-05T13:20:26.368Z,30.40
2019-02-05T13:22:54.657Z,31.20
2019-02-05T13:25:25.678Z,29.70
2019-02-05T13:27:53.638Z,26.30
2019-02-05T13:30:23.845Z,28.93
2019-02-05T13:32:55.500Z,30.17
2019-02-05T13:35:24.399Z,28.67
2019-02-05T13:37:52.479Z,31.43
2019-02-05T13:40:22.698Z,28.73
2019-02-05T13:42:50.564Z,27.87
2019-02-05T13:45:20.823Z,27.47
2019-02-05T13:47:49.022Z,28.57
2019-02-05T13:50:32.138Z,28.90
2019-02-05T13:52:51.169Z,25.83
2019-02-05T13:55:20.989Z,25.27
2019-02-05T13:57:48.710Z,25.90
2019-02-05T14:00:22.317Z,24.43
2019-02-05T14:02:50.157Z,26.30
2019-02-05T14:05:17.926Z,29.60
2019-02-05T14:07:45.857Z,26.50
2019-02-05T14:10:17.352Z,25.30
2019-02-05T14:12:45.164Z,27.13
2019-02-05T14:15:13.434Z,25.87
2019-02-05T14:17:41.248Z,24.97
2019-02-05T14:20:09.956Z,27.70
2019-02-05T14:22:38.094Z,28.83
2019-02-05T14:25:07.861Z,27.30
2019-02-05T14:27:35.560Z,25.07
2019-02-05T14:30:05.233Z,23.37
2019-02-05T14:32:33.236Z,23.17
2019-02-05T14:35:01.303Z,24.17
2019-02-05T14:37:29.135Z,24.87
2019-02-05T14:39:57.887Z,26.03
2019-02-05T14:42:25.624Z,23.93
2019-02-05T14:44:53.667Z,27.90
2019-02-05T14:47:21.357Z,24.40
2019-02-05T14:49:49.207Z,21.40
2019-02-05T14:52:16.889Z,26.27
2019-02-05T14:54:44.924Z,20.97
2019-02-05T14:57:12.947Z,18.93
2019-02-05T14:59:40.739Z,24.77
2019-02-05T15:02:09.257Z,23.03
2019-02-05T15:04:37.116Z,23.77
2019-02-05T15:07:04.918Z,23.60
2019-02-05T15:09:32.783Z,25.07
2019-02-05T15:12:00.652Z,22.60
2019-02-05T15:14:28.475Z,22.67
2019-02-05T15:16:56.168Z,21.90
2019-02-05T15:19:23.867Z,21.07
2019-02-05T15:21:51.538Z,20.33
2019-02-05T15:24:19.301Z,22.00
2019-02-05T15:26:47.101Z,21.03
2019-02-05T15:29:17.268Z,21.87
2019-02-05T15:31:54.344Z,23.50
2019-02-05T15:34:28.960Z,22.60
2019-02-05T15:36:58.985Z,21.03
2019-02-05T15:39:26.724Z,22.90
2019-02-05T15:41:54.992Z,21.63
2019-02-05T15:44:22.970Z,20.87
2019-02-05T15:46:51.013Z,23.53
2019-02-05T15:49:18.853Z,20.73
2019-02-05T15:51:46.745Z,19.87
2019-02-05T15:54:14.775Z,18.23
2019-02-05T15:56:42.700Z,18.97
2019-02-05T15:59:11.080Z,19.70
2019-02-05T16:01:40.494Z,17.87
2019-02-05T16:04:09.064Z,19.50
2019-02-05T16:06:39.006Z,18.83
2019-02-05T16:09:10.106Z,17.17
2019-02-05T16:11:41.863Z,19.60
2019-02-05T16:14:10.660Z,19.57
2019-02-05T16:16:38.619Z,20.20
2019-02-05T16:19:06.401Z,17.60
2019-02-05T16:21:37.499Z,20.10
2019-02-05T16:24:06.679Z,17.47
2019-02-05T16:26:34.838Z,18.70
2019-02-05T16:29:03.792Z,19.20
2019-02-05T16:31:32.707Z,17.67
2019-02-05T16:34:01.603Z,17.27
2019-02-05T16:36:29.732Z,19.87
2019-02-05T16:39:01.161Z,18.87
2019-02-05T16:41:29.678Z,17.43
2019-02-05T16:43:57.835Z,19.27
2019-02-05T16:46:25.713Z,18.03
2019-02-05T16:48:53.466Z,18.57
2019-02-05T16:51:22.207Z,17.13
2019-02-05T16:53:49.925Z,20.10
2019-02-05T16:56:18.002Z,23.57
2019-02-05T16:58:46.281Z,19.57
2019-02-05T17:01:16.805Z,20.77
2019-02-05T17:03:44.759Z,19.93
2019-02-05T17:06:14.467Z,24.13
2019-02-05T17:08:46.246Z,21.03
2019-02-05T17:11:15.176Z,21.87
2019-02-05T17:13:43.677Z,20.57
2019-02-05T17:16:12.375Z,21.77
2019-02-05T17:18:40.288Z,24.00
2019-02-05T17:21:09.303Z,21.60
2019-02-05T17:23:38.648Z,23.47
2019-02-05T17:26:08.910Z,23.60
2019-02-05T17:28:37.513Z,24.43
2019-02-05T17:31:05.786Z,23.60
2019-02-05T17:33:33.643Z,23.43
2019-02-05T17:36:01.569Z,26.47
2019-02-05T17:38:29.420Z,24.07
2019-02-05T17:40:57.197Z,26.50
2019-02-05T17:43:24.980Z,23.13
2019-02-05T17:45:52.964Z,27.10
2019-02-05T17:48:24.795Z,27.03
2019-02-05T17:50:52.740Z,26.00
2019-02-05T17:53:21.971Z,25.17
2019-02-05T17:55:49.717Z,25.00
2019-02-05T17:58:20.149Z,26.77
2019-02-05T18:01:09.117Z,25.53
2019-02-05T18:03:36.987Z,27.73
2019-02-05T18:06:07.567Z,22.70
2019-02-05T18:08:36.876Z,26.30
2019-02-05T18:11:05.631Z,29.43
2019-02-05T18:13:33.440Z,26.87
2019-02-05T18:16:16.346Z,24.77
2019-02-05T18:18:44.301Z,26.10
2019-02-05T18:21:15.335Z,28.00
2019-02-05T18:23:44.449Z,25.37
2019-02-05T18:26:13.845Z,28.57
2019-02-05T18:28:43.829Z,26.50
2019-02-05T18:31:11.700Z,26.50
2019-02-05T18:33:39.670Z,25.63
2019-02-05T18:36:08.225Z,29.33
2019-02-05T18:38:36.098Z,25.87
2019-02-05T18:41:04.993Z,27.20
2019-02-05T18:43:34.205Z,27.33
2019-02-05T18:46:04.109Z,25.23
2019-02-05T18:48:32.356Z,26.30
2019-02-05T18:51:00.073Z,22.40
2019-02-05T18:53:27.981Z,25.30
2019-02-05T18:55:55.880Z,25.17
2019-02-05T18:58:26.683Z,26.50
2019-02-05T19:00:54.196Z,24.37
2019-02-05T19:03:26.124Z,23.47
2019-02-05T19:05:56.323Z,27.07
2019-02-05T19:08:26.031Z,25.27
2019-02-05T19:10:53.759Z,22.93
2019-02-05T19:13:22.916Z,23.03
2019-02-05T19:15:51.633Z,21.90
2019-02-05T19:18:19.365Z,22.07
2019-02-05T19:20:47.076Z,26.63
2019-02-05T19:23:14.840Z,26.43
2019-02-05T19:26:10.827Z,27.87
2019-02-05T19:28:39.940Z,27.63
2019-02-05T19:31:42.239Z,27.53
2019-02-05T19:34:10.198Z,29.70
2019-02-05T19:36:37.902Z,23.23
2019-02-05T19:39:07.463Z,29.27
2019-02-05T19:41:36.341Z,23.07
2019-02-05T19:44:05.372Z,23.83
2019-02-05T19:47:04.954Z,22.83
2019-02-05T19:49:45.164Z,22.57
2019-02-05T19:52:12.961Z,25.13
2019-02-05T19:54:40.902Z,26.77
2019-02-05T19:57:08.785Z,22.63
2019-02-05T19:59:38.913Z,25.47
2019-02-05T20:02:07.719Z,23.63
2019-02-05T20:04:35.543Z,23.63
2019-02-05T20:07:06.195Z,26.13
2019-02-05T20:09:34.060Z,26.33
2019-02-05T20:12:02.145Z,24.40
2019-02-05T20:14:30.092Z,25.00
2019-02-05T20:16:58.930Z,25.43
2019-02-05T20:19:26.795Z,26.60
2019-02-05T20:21:54.543Z,29.57
2019-02-05T20:24:22.381Z,25.73
2019-02-05T20:26:52.196Z,27.50
2019-02-05T20:29:19.953Z,26.80
2019-02-05T20:31:48.051Z,28.60
2019-02-05T20:34:15.861Z,25.77
2019-02-05T20:36:43.948Z,26.67
2019-02-05T20:39:13.968Z,24.53
2019-02-05T20:41:41.807Z,24.40
2019-02-05T20:44:09.547Z,22.07
2019-02-05T20:46:39.346Z,24.90
2019-02-05T20:49:07.033Z,23.97
2019-02-05T20:51:34.756Z,22.20
2019-02-05T20:54:03.150Z,24.17
2019-02-05T20:56:31.147Z,22.70
2019-02-05T20:58:58.971Z,22.77
2019-02-05T21:01:27.237Z,27.83
2019-02-05T21:04:01.126Z,25.60
2019-02-05T21:06:24.455Z,23.37
2019-02-05T21:08:53.313Z,27.77
2019-02-05T21:11:21.084Z,25.80
2019-02-05T21:13:49.021Z,27.13
2019-02-05T21:16:16.748Z,24.70
2019-02-05T21:18:46.516Z,27.07
2019-02-05T21:21:15.317Z,26.83
2019-02-05T21:23:43.365Z,28.33
2019-02-05T21:26:11.285Z,27.83
2019-02-05T21:28:39.094Z,27.27
2019-02-05T21:31:07.173Z,27.10
2019-02-05T21:33:36.825Z,26.97
2019-02-05T21:36:04.892Z,26.17
2019-02-05T21:38:35.138Z,26.33
2019-02-05T21:41:05.110Z,27.33
2019-02-05T21:43:33.016Z,24.80
2019-02-05T21:46:01.332Z,26.13
2019-02-05T21:48:29.187Z,26.87
2019-02-05T21:50:57.109Z,27.97
2019-02-05T21:53:27.844Z,26.07
2019-02-05T21:55:55.943Z,27.97
2019-02-05T21:58:24.029Z,23.77
2019-02-05T22:00:51.937Z,25.47
2019-02-05T22:03:20.069Z,26.27
2019-02-05T22:05:48.196Z,27.10
2019-02-05T22:08:16.039Z,26.63
2019-02-05T22:10:43.999Z,26.67
2019-02-05T22:13:11.794Z,25.00
2019-02-05T22:15:39.584Z,29.07
2019-02-05T22:18:07.744Z,27.80
2019-02-05T22:20:35.866Z,28.43
2019-02-05T22:23:03.726Z,26.30
2019-02-05T22:25:31.569Z,26.63
2019-02-05T22:27:59.487Z,26.30
2019-02-05T22:30:34.236Z,27.73
2019-02-05T22:33:02.892Z,25.80
2019-02-05T22:35:31.014Z,25.67
2019-02-05T22:37:59.116Z,28.17
2019-02-05T22:40:27.373Z,26.70
2019-02-05T22:42:55.923Z,28.93
2019-02-05T22:45:26.324Z,28.73
2019-02-05T22:47:58.788Z,28.10
2019-02-05T22:50:31.651Z,26.70
2019-02-05T22:53:01.563Z,30.37
2019-02-05T22:55:29.493Z,29.30
2019-02-05T22:57:57.309Z,26.60
2019-02-05T23:00:47.730Z,30.13
2019-02-05T23:03:20.565Z,25.30
2019-02-05T23:06:32.279Z,31.20
2019-02-05T23:09:15.801Z,25.33
2019-02-05T23:12:19.728Z,25.63
2019-02-05T23:14:53.208Z,26.73
2019-02-05T23:17:21.027Z,27.83
2019-02-05T23:19:50.672Z,29.57
2019-02-05T23:22:18.817Z,25.47
2019-02-05T23:24:46.989Z,23.47
2019-02-05T23:27:15.902Z,26.53
2019-02-05T23:29:44.002Z,23.70
2019-02-05T23:32:12.219Z,25.50
2019-02-05T23:34:40.121Z,22.10
2019-02-05T23:37:09.267Z,25.00
2019-02-05T23:39:40.604Z,28.10
2019-02-05T23:42:08.958Z,25.00
2019-02-05T23:44:37.486Z,27.47
2019-02-05T23:47:06.048Z,27.10
2019-02-05T23:49:34.797Z,25.07
2019-02-05T23:52:03.302Z,23.50
2019-02-05T23:54:31.847Z,20.97
2019-02-05T23:56:59.779Z,22.33
2019-02-05T23:59:27.746Z,21.37
